createdAt,value
2022-07-26T00:04:44.607Z,23.80
2022-07-26T00:09:37.305Z,24.00
2022-07-26T00:14:29.890Z,24.00
2022-07-26T00:19:24.970Z,24.00
2022-07-26T00:24:18.688Z,24.00
2022-07-26T00:29:17.941Z,23.90
2022-07-26T00:34:10.480Z,23.90
2022-07-26T00:39:03.371Z,23.90
2022-07-26T00:44:00.230Z,24.00
2022-07-26T00:48:52.862Z,23.90
2022-07-26T00:53:46.898Z,23.80
2022-07-26T00:58:39.503Z,23.80
2022-07-26T01:03:39.359Z,23.70
2022-07-26T01:08:32.879Z,23.70
2022-07-26T01:13:25.751Z,23.70
2022-07-26T01:18:18.317Z,23.70
2022-07-26T01:23:13.401Z,23.70
2022-07-26T01:28:06.658Z,23.70
2022-07-26T01:32:59.274Z,23.60
2022-07-26T01:37:52.863Z,23.40
2022-07-26T01:42:45.555Z,23.30
2022-07-26T01:47:40.296Z,23.30
2022-07-26T01:52:33.603Z,23.20
2022-07-26T01:57:26.171Z,23.20
2022-07-26T02:02:18.950Z,23.00
2022-07-26T02:07:15.458Z,22.70
2022-07-26T02:12:08.545Z,22.70
2022-07-26T02:17:01.551Z,22.70
2022-07-26T02:21:56.542Z,22.70
2022-07-26T02:26:51.334Z,22.60
2022-07-26T02:31:48.415Z,22.40
2022-07-26T02:36:42.615Z,22.30
2022-07-26T02:41:35.478Z,22.20
2022-07-26T02:46:28.101Z,22.10
2022-07-26T02:51:20.738Z,22.00
2022-07-26T02:56:14.432Z,21.90
2022-07-26T03:01:08.890Z,22.00
2022-07-26T03:06:01.591Z,22.00
2022-07-26T03:10:54.678Z,21.90
2022-07-26T03:15:47.457Z,21.80
2022-07-26T03:20:40.203Z,21.80
2022-07-26T03:25:32.794Z,21.80
2022-07-26T03:30:31.563Z,21.70
2022-07-26T03:35:26.766Z,21.80
2022-07-26T03:40:19.964Z,21.70
2022-07-26T03:45:12.834Z,21.70
2022-07-26T03:50:07.272Z,21.80
2022-07-26T03:54:59.879Z,21.80
2022-07-26T03:59:52.449Z,21.80
2022-07-26T04:04:45.015Z,21.70
2022-07-26T04:09:38.912Z,21.70
2022-07-26T04:14:31.655Z,21.80
2022-07-26T04:19:24.774Z,21.80
2022-07-26T04:24:17.389Z,21.90
2022-07-26T04:29:11.639Z,22.00
2022-07-26T04:34:04.889Z,22.20
2022-07-26T04:38:58.140Z,22.30
2022-07-26T04:43:50.924Z,22.40
2022-07-26T04:48:45.970Z,22.50
2022-07-26T04:53:39.667Z,22.60
2022-07-26T04:58:32.664Z,22.90
2022-07-26T05:03:25.613Z,23.00
2022-07-26T05:08:19.630Z,23.30
2022-07-26T05:13:12.787Z,23.50
2022-07-26T05:18:08.943Z,23.50
2022-07-26T05:23:03.691Z,23.70
2022-07-26T05:27:58.265Z,23.80
2022-07-26T05:32:53.185Z,24.00
2022-07-26T05:37:50.855Z,24.20
2022-07-26T05:42:43.930Z,24.40
2022-07-26T05:47:36.723Z,24.70
2022-07-26T05:52:30.390Z,24.90
2022-07-26T05:57:23.045Z,25.20
2022-07-26T06:02:19.863Z,25.30
2022-07-26T06:07:13.052Z,25.50
2022-07-26T06:12:06.094Z,26.10
2022-07-26T06:16:58.965Z,26.40
2022-07-26T06:21:51.528Z,26.80
2022-07-26T06:26:56.764Z,26.70
2022-07-26T06:31:50.315Z,27.40
2022-07-26T06:36:53.529Z,28.10
2022-07-26T06:41:46.054Z,28.00
2022-07-26T06:46:47.750Z,28.10
2022-07-26T06:51:40.232Z,28.40
2022-07-26T06:56:33.819Z,29.40
2022-07-26T07:01:58.477Z,30.40
2022-07-26T07:06:38.982Z,31.00
2022-07-26T07:11:31.590Z,32.30
2022-07-26T07:16:24.240Z,33.20
2022-07-26T07:21:16.993Z,33.10
2022-07-26T07:26:12.008Z,33.90
2022-07-26T07:31:09.117Z,34.30
2022-07-26T07:36:01.712Z,35.30
2022-07-26T07:40:54.289Z,36.80
2022-07-26T07:45:48.493Z,37.30
2022-07-26T07:50:42.048Z,37.30
2022-07-26T07:55:40.905Z,38.80
2022-07-26T08:00:41.738Z,37.60
2022-07-26T08:05:40.392Z,37.70
2022-07-26T08:10:43.573Z,38.70
2022-07-26T08:15:47.682Z,40.50
2022-07-26T08:20:42.805Z,39.40
2022-07-26T08:25:39.968Z,38.10
2022-07-26T08:30:40.795Z,36.70
2022-07-26T08:35:34.553Z,33.80
2022-07-26T08:40:36.822Z,31.40
2022-07-26T08:45:32.874Z,29.60
2022-07-26T08:50:33.767Z,28.90
2022-07-26T08:55:44.688Z,31.60
2022-07-26T09:00:46.824Z,36.70
2022-07-26T09:05:43.899Z,39.80
2022-07-26T09:10:42.302Z,40.40
2022-07-26T09:15:38.513Z,42.10
2022-07-26T09:20:36.405Z,43.90
2022-07-26T09:25:37.655Z,45.50
2022-07-26T09:30:34.271Z,45.40
2022-07-26T09:35:51.173Z,43.90
2022-07-26T09:40:51.905Z,41.20
2022-07-26T09:45:44.823Z,41.30
2022-07-26T09:50:37.280Z,40.30
2022-07-26T09:55:40.911Z,41.50
2022-07-26T10:00:36.570Z,39.60
2022-07-26T10:05:29.689Z,37.90
2022-07-26T10:10:56.424Z,38.20
2022-07-26T10:15:51.651Z,39.30
2022-07-26T10:20:50.707Z,37.60
2022-07-26T10:25:48.175Z,37.40
2022-07-26T10:30:41.257Z,38.90
2022-07-26T10:35:42.439Z,40.50
2022-07-26T10:40:37.448Z,39.80
2022-07-26T10:45:30.689Z,40.00
2022-07-26T10:50:34.229Z,39.40
2022-07-26T10:55:27.480Z,37.60
2022-07-26T11:00:24.707Z,36.20
2022-07-26T11:05:19.360Z,35.80
2022-07-26T11:10:12.376Z,39.20
2022-07-26T11:15:25.580Z,40.80
2022-07-26T11:20:29.793Z,40.10
2022-07-26T11:25:23.254Z,41.10
2022-07-26T11:30:16.147Z,42.40
2022-07-26T11:35:09.164Z,38.80
2022-07-26T11:40:02.257Z,37.40
2022-07-26T11:44:55.613Z,37.10
2022-07-26T11:50:11.563Z,35.60
2022-07-26T11:55:06.944Z,34.70
2022-07-26T12:00:01.257Z,33.90
2022-07-26T12:05:19.910Z,33.80
2022-07-26T12:10:17.962Z,33.90
2022-07-26T12:15:14.117Z,34.00
2022-07-26T12:20:18.736Z,34.00
2022-07-26T12:25:13.808Z,33.40
2022-07-26T12:30:09.987Z,32.60
2022-07-26T12:35:13.409Z,31.80
2022-07-26T12:40:12.682Z,31.50
2022-07-26T12:45:13.070Z,31.10
2022-07-26T12:50:07.190Z,31.10
2022-07-26T12:55:01.220Z,31.40
2022-07-26T12:59:56.464Z,31.90
2022-07-26T13:04:50.215Z,32.10
2022-07-26T13:09:44.947Z,32.40
2022-07-26T13:14:39.024Z,32.00
2022-07-26T13:19:32.889Z,31.80
2022-07-26T13:24:27.535Z,31.30
2022-07-26T13:29:22.826Z,30.50
2022-07-26T13:34:15.950Z,30.40
2022-07-26T13:39:09.307Z,30.20
2022-07-26T13:44:02.327Z,29.90
2022-07-26T13:49:01.001Z,30.30
2022-07-26T13:53:55.607Z,31.00
2022-07-26T13:58:49.064Z,31.50
2022-07-26T14:03:42.127Z,31.60
2022-07-26T14:08:34.913Z,31.90
2022-07-26T14:13:27.900Z,31.90
2022-07-26T14:18:23.591Z,31.80
2022-07-26T14:23:19.615Z,31.70
2022-07-26T14:28:12.727Z,31.60
2022-07-26T16:01:23.536Z,28.10
2022-07-26T16:06:16.048Z,27.90
2022-07-26T16:11:08.459Z,27.50
2022-07-26T16:16:02.130Z,27.20
2022-07-26T16:21:01.468Z,27.30
2022-07-26T16:25:54.090Z,27.30
2022-07-26T16:30:46.614Z,27.10
2022-07-26T16:35:38.837Z,27.30
2022-07-26T16:40:31.145Z,26.90
2022-07-26T16:45:23.288Z,26.90
2022-07-26T16:50:27.016Z,26.70
2022-07-26T16:55:20.061Z,26.60
2022-07-26T17:00:15.805Z,26.50
2022-07-26T17:05:10.113Z,26.40
2022-07-26T17:10:04.230Z,26.40
2022-07-26T17:14:56.522Z,26.20
2022-07-26T17:19:48.948Z,26.40
2022-07-26T17:24:41.584Z,26.30
2022-07-26T17:29:33.738Z,26.20
2022-07-26T17:34:26.196Z,26.20
2022-07-26T17:39:18.380Z,26.20
2022-07-26T17:44:10.996Z,25.90
2022-07-26T17:49:03.476Z,25.60
2022-07-26T17:53:55.786Z,25.50
2022-07-26T17:58:48.013Z,25.30
2022-07-26T18:03:40.287Z,25.20
2022-07-26T18:08:32.637Z,25.10
2022-07-26T18:13:26.607Z,25.00
2022-07-26T18:18:19.408Z,24.70
2022-07-26T18:23:11.689Z,24.60
2022-07-26T18:28:07.113Z,24.40
2022-07-26T18:33:00.260Z,24.20
2022-07-26T18:37:53.169Z,24.00
2022-07-26T18:42:45.410Z,23.70
2022-07-26T18:47:37.934Z,23.60
2022-07-26T18:52:32.576Z,23.50
2022-07-26T18:57:25.052Z,23.20
2022-07-26T19:02:17.323Z,23.00
2022-07-26T19:07:09.584Z,22.80
2022-07-26T19:12:04.962Z,22.70
2022-07-26T19:16:57.306Z,22.60
2022-07-26T19:21:49.578Z,22.60
2022-07-26T19:26:41.751Z,22.40
2022-07-26T19:31:34.288Z,22.30
2022-07-26T19:36:26.818Z,22.20
2022-07-26T19:41:20.143Z,22.00
2022-07-26T19:46:12.527Z,22.00
2022-07-26T19:51:04.939Z,21.90
2022-07-26T19:55:57.189Z,21.90
2022-07-26T20:00:50.299Z,21.90
2022-07-26T20:05:42.546Z,21.80
2022-07-26T20:10:36.709Z,21.80
2022-07-26T20:15:29.224Z,21.70
2022-07-26T20:20:23.270Z,21.70
2022-07-26T20:25:21.205Z,21.60
2022-07-26T20:30:14.681Z,21.60
2022-07-26T20:35:07.324Z,21.60
2022-07-26T20:39:59.560Z,21.50
2022-07-26T20:44:52.947Z,21.30
2022-07-26T20:49:45.506Z,21.30
2022-07-26T20:54:37.821Z,21.30
2022-07-26T20:59:30.261Z,21.20
2022-07-26T21:04:22.710Z,21.20
2022-07-26T21:09:15.311Z,21.10
2022-07-26T21:14:07.986Z,21.10
2022-07-26T21:19:00.934Z,21.20
2022-07-26T21:23:53.106Z,21.30
2022-07-26T21:28:45.481Z,21.30
2022-07-26T21:33:37.833Z,21.30
2022-07-26T21:38:32.160Z,21.40
2022-07-26T21:43:24.807Z,21.40
2022-07-26T21:48:17.809Z,21.40
2022-07-26T21:53:10.328Z,21.50
2022-07-26T21:58:02.545Z,21.50
2022-07-26T22:02:54.834Z,21.30
2022-07-26T22:07:47.106Z,21.30
2022-07-26T22:12:39.323Z,21.20
2022-07-26T22:17:31.617Z,21.20
2022-07-26T22:22:23.918Z,21.20
2022-07-26T22:27:16.212Z,21.30
2022-07-26T22:32:08.484Z,21.30
2022-07-26T22:37:00.858Z,21.30
2022-07-26T22:42:14.216Z,21.40
2022-07-26T22:47:05.711Z,21.30
2022-07-26T22:51:57.943Z,21.20
2022-07-26T22:56:50.360Z,21.20
2022-07-26T23:01:42.658Z,21.30
2022-07-26T23:06:35.009Z,21.20
2022-07-26T23:11:28.057Z,21.10
2022-07-26T23:16:25.095Z,21.10
2022-07-26T23:21:18.093Z,21.10
2022-07-26T23:26:10.722Z,21.20
2022-07-26T23:31:03.310Z,21.20
2022-07-26T23:35:55.551Z,21.20
2022-07-26T23:40:48.077Z,21.10
2022-07-26T23:45:40.991Z,21.10
2022-07-26T23:50:33.196Z,21.00
2022-07-26T23:55:25.489Z,21.00
